createdAt,value
2022-08-10T00:01:52.585Z,60.00
2022-08-10T00:04:22.266Z,60.38
2022-08-10T00:06:52.372Z,60.83
2022-08-10T00:09:21.668Z,61.19
2022-08-10T00:11:50.165Z,61.16
2022-08-10T00:14:19.109Z,61.45
2022-08-10T00:16:47.762Z,61.48
2022-08-10T00:19:18.341Z,61.90
2022-08-10T00:21:47.613Z,62.25
2022-08-10T00:24:16.073Z,62.14
2022-08-10T00:28:01.638Z,62.41
2022-08-10T00:29:33.442Z,62.40
2022-08-10T00:32:01.693Z,62.17
2022-08-10T00:34:33.000Z,62.19
2022-08-10T00:37:01.406Z,62.36
2022-08-10T00:39:30.629Z,62.52
2022-08-10T00:42:08.141Z,62.87
2022-08-10T00:44:38.023Z,62.56
2022-08-10T00:47:06.630Z,62.51
2022-08-10T00:49:36.630Z,62.52
2022-08-10T00:52:05.895Z,62.76
2022-08-10T00:54:35.946Z,62.53
2022-08-10T00:57:16.772Z,62.65
2022-08-10T00:59:57.992Z,62.50
2022-08-10T01:02:29.802Z,62.58
2022-08-10T01:05:02.476Z,62.92
2022-08-10T01:07:49.518Z,62.87
2022-08-10T01:10:23.610Z,63.06
2022-08-10T01:12:55.935Z,63.24
2022-08-10T01:15:28.393Z,63.25
2022-08-10T01:18:01.911Z,63.49
2022-08-10T01:20:36.133Z,63.85
2022-08-10T01:23:22.402Z,63.83
2022-08-10T01:26:11.442Z,64.15
2022-08-10T01:28:48.676Z,64.55
2022-08-10T01:31:21.721Z,64.74
2022-08-10T01:33:58.214Z,64.99
2022-08-10T01:36:31.997Z,65.03
2022-08-10T01:39:03.484Z,65.08
2022-08-10T01:41:43.969Z,65.17
2022-08-10T01:44:19.874Z,65.55
2022-08-10T01:46:56.975Z,65.45
2022-08-10T01:49:26.243Z,65.35
2022-08-10T01:51:56.449Z,65.38
2022-08-10T01:54:30.585Z,65.57
2022-08-10T01:56:59.984Z,65.48
2022-08-10T01:59:31.432Z,65.45
2022-08-10T02:02:03.378Z,65.55
2022-08-10T02:04:33.923Z,65.61
2022-08-10T02:07:03.195Z,65.60
2022-08-10T02:09:33.652Z,65.70
2022-08-10T02:12:08.279Z,65.51
2022-08-10T02:14:40.546Z,65.51
2022-08-10T02:18:00.636Z,65.36
2022-08-10T02:20:04.194Z,64.88
2022-08-10T02:22:37.077Z,64.96
2022-08-10T02:25:08.773Z,64.66
2022-08-10T02:27:38.254Z,64.38
2022-08-10T02:30:07.706Z,64.50
2022-08-10T02:32:38.976Z,64.56
2022-08-10T02:35:13.928Z,64.71
2022-08-10T02:37:51.825Z,64.54
2022-08-10T02:45:15.945Z,64.82
2022-08-10T02:45:18.090Z,64.85
2022-08-10T02:46:08.374Z,64.76
2022-08-10T02:48:41.326Z,64.69
2022-08-10T02:51:12.895Z,64.78
2022-08-10T02:53:54.341Z,64.75
2022-08-10T02:56:27.777Z,64.43
2022-08-10T02:59:00.032Z,64.30
2022-08-10T03:01:30.602Z,64.35
2022-08-10T03:04:02.351Z,64.63
2022-08-10T03:06:35.583Z,64.74
2022-08-10T03:09:05.213Z,64.95
2022-08-10T03:12:36.537Z,64.92
2022-08-10T03:14:25.962Z,64.80
2022-08-10T03:16:55.294Z,65.12
2022-08-10T03:20:35.111Z,65.24
2022-08-10T03:22:16.112Z,65.44
2022-08-10T03:24:45.425Z,65.94
2022-08-10T03:27:14.676Z,66.07
2022-08-10T03:30:23.465Z,66.23
2022-08-10T03:32:32.475Z,66.41
2022-08-10T03:35:02.404Z,66.59
2022-08-10T03:37:31.141Z,66.92
2022-08-10T03:39:59.529Z,67.11
2022-08-10T03:42:28.725Z,67.05
2022-08-10T03:44:57.594Z,67.33
2022-08-10T03:47:26.497Z,67.34
2022-08-10T03:49:55.304Z,67.34
2022-08-10T03:52:25.455Z,67.58
2022-08-10T03:54:54.105Z,67.55
2022-08-10T03:57:23.483Z,67.24
2022-08-10T03:59:51.938Z,67.19
2022-08-10T04:02:45.980Z,67.40
2022-08-10T04:05:10.373Z,67.53
2022-08-10T04:07:40.747Z,67.36
2022-08-10T04:10:13.145Z,66.86
2022-08-10T04:12:41.978Z,66.60
2022-08-10T04:15:10.648Z,66.32
2022-08-10T04:18:03.573Z,66.22
2022-08-10T04:20:34.248Z,65.62
2022-08-10T04:23:07.877Z,65.04
2022-08-10T04:25:37.489Z,64.85
2022-08-10T04:28:06.076Z,64.79
2022-08-10T04:30:36.583Z,64.35
2022-08-10T04:33:07.496Z,64.08
2022-08-10T04:35:36.605Z,63.37
2022-08-10T04:38:07.498Z,62.81
2022-08-10T04:40:35.775Z,62.35
2022-08-10T04:43:11.786Z,62.08
2022-08-10T04:45:49.519Z,61.98
2022-08-10T04:48:41.575Z,61.68
2022-08-10T04:51:10.840Z,61.56
2022-08-10T04:54:05.316Z,61.32
2022-08-10T04:56:32.147Z,61.22
2022-08-10T04:59:01.210Z,60.92
2022-08-10T05:01:37.787Z,60.72
2022-08-10T05:04:35.325Z,60.49
2022-08-10T05:07:08.418Z,60.22
2022-08-10T05:10:02.910Z,60.06
2022-08-10T05:12:26.838Z,59.83
2022-08-10T05:14:55.247Z,59.66
2022-08-10T05:17:24.108Z,59.75
2022-08-10T05:20:01.873Z,59.28
2022-08-10T05:22:35.490Z,59.12
2022-08-10T05:25:06.828Z,58.85
2022-08-10T05:27:35.588Z,58.16
2022-08-10T05:30:04.250Z,57.90
2022-08-10T05:32:34.416Z,57.56
2022-08-10T05:35:21.545Z,57.14
2022-08-10T05:38:09.764Z,56.99
2022-08-10T05:40:47.244Z,56.49
2022-08-10T05:43:20.200Z,56.47
2022-08-10T05:46:16.948Z,56.16
2022-08-10T05:48:54.255Z,55.98
2022-08-10T05:51:27.316Z,55.14
2022-08-10T05:54:02.029Z,54.63
2022-08-10T05:56:53.950Z,54.26
2022-08-10T06:00:11.221Z,54.29
2022-08-10T06:02:31.417Z,54.35
2022-08-10T06:05:05.709Z,54.24
2022-08-10T06:07:36.725Z,54.21
2022-08-10T06:10:10.041Z,54.28
2022-08-10T06:12:54.928Z,54.07
2022-08-10T06:15:51.943Z,53.33
2022-08-10T06:18:14.383Z,52.62
2022-08-10T06:20:43.018Z,52.04
2022-08-10T06:23:11.699Z,51.21
2022-08-10T06:26:08.374Z,51.01
2022-08-10T06:28:32.837Z,50.76
2022-08-10T06:31:02.335Z,50.90
2022-08-10T06:33:32.308Z,50.79
2022-08-10T06:36:02.107Z,50.23
2022-08-10T06:38:33.430Z,49.99
2022-08-10T06:41:04.357Z,50.29
2022-08-10T06:43:35.341Z,50.15
2022-08-10T06:46:08.797Z,49.91
2022-08-10T06:48:40.727Z,49.89
2022-08-10T06:51:10.177Z,50.07
2022-08-10T06:53:54.152Z,49.78
2022-08-10T06:56:37.869Z,49.19
2022-08-10T06:59:21.830Z,48.80
2022-08-10T07:01:54.313Z,49.09
2022-08-10T07:04:32.839Z,49.12
2022-08-10T07:07:06.914Z,48.73
2022-08-10T07:09:37.659Z,48.54
2022-08-10T07:12:08.199Z,48.53
2022-08-10T07:14:43.188Z,48.11
2022-08-10T07:17:16.168Z,47.77
2022-08-10T07:19:50.108Z,47.37
2022-08-10T07:23:01.358Z,47.23
2022-08-10T07:25:12.179Z,46.90
2022-08-10T07:28:00.734Z,46.73
2022-08-10T07:30:32.727Z,46.28
2022-08-10T07:33:02.261Z,46.14
2022-08-10T07:35:41.697Z,45.97
2022-08-10T07:38:14.902Z,45.97
2022-08-10T07:40:43.711Z,45.25
2022-08-10T07:43:12.657Z,45.14
2022-08-10T07:45:42.568Z,45.31
2022-08-10T07:48:13.490Z,45.14
2022-08-10T07:50:42.718Z,44.69
2022-08-10T07:53:13.711Z,44.50
2022-08-10T07:56:05.006Z,44.43
2022-08-10T07:58:35.582Z,44.58
2022-08-10T08:01:05.467Z,44.19
2022-08-10T08:03:34.727Z,43.79
2022-08-10T08:06:05.543Z,43.22
2022-08-10T08:08:42.107Z,42.94
2022-08-10T08:11:25.945Z,42.35
2022-08-10T08:13:57.989Z,42.10
2022-08-10T08:16:27.955Z,41.87
2022-08-10T08:19:26.579Z,41.30
2022-08-10T08:24:08.725Z,40.02
2022-08-10T08:24:37.276Z,38.83
2022-08-10T08:27:08.099Z,39.08
2022-08-10T08:29:38.656Z,38.64
2022-08-10T08:32:09.826Z,37.84
2022-08-10T08:34:39.549Z,37.51
2022-08-10T08:37:10.408Z,37.34
2022-08-10T08:39:39.469Z,36.82
2022-08-10T08:42:28.358Z,37.10
2022-08-10T08:45:04.910Z,36.92
2022-08-10T08:48:04.237Z,36.33
2022-08-10T08:50:41.538Z,36.62
2022-08-10T08:53:22.355Z,36.68
2022-08-10T08:56:06.005Z,36.04
2022-08-10T08:58:47.879Z,35.83
2022-08-10T09:01:38.320Z,35.66
2022-08-10T09:04:20.044Z,35.77
2022-08-10T09:06:56.393Z,35.68
2022-08-10T09:09:37.036Z,35.63
2022-08-10T09:12:14.887Z,35.60
2022-08-10T09:14:50.526Z,35.33
2022-08-10T09:17:21.941Z,34.93
2022-08-10T09:19:56.076Z,35.01
2022-08-10T09:22:31.319Z,34.83
2022-08-10T09:25:02.391Z,34.95
2022-08-10T09:27:35.405Z,34.25
2022-08-10T09:30:06.420Z,34.65
2022-08-10T09:36:17.488Z,34.65
2022-08-10T09:36:25.390Z,34.76
2022-08-10T09:38:33.426Z,34.50
2022-08-10T09:41:13.582Z,34.55
2022-08-10T09:43:51.541Z,34.74
2022-08-10T09:46:29.758Z,34.61
2022-08-10T09:49:03.537Z,34.29
2022-08-10T09:51:46.405Z,33.92
2022-08-10T09:54:23.271Z,33.20
2022-08-10T09:57:17.846Z,33.24
2022-08-10T10:00:00.397Z,32.65
2022-08-10T10:02:37.716Z,33.06
2022-08-10T10:05:13.898Z,33.52
2022-08-10T10:07:47.617Z,33.62
2022-08-10T10:10:21.157Z,32.91
2022-08-10T10:12:54.593Z,32.62
2022-08-10T10:15:27.857Z,32.13
2022-08-10T10:18:13.289Z,32.29
2022-08-10T10:20:43.940Z,32.22
2022-08-10T10:23:19.657Z,32.09
2022-08-10T10:25:52.630Z,31.95
2022-08-10T10:29:06.904Z,32.00
2022-08-10T10:31:26.032Z,31.67
2022-08-10T10:34:02.279Z,30.27
2022-08-10T10:36:31.099Z,29.98
2022-08-10T10:39:01.639Z,29.95
2022-08-10T10:41:56.279Z,30.18
2022-08-10T10:44:40.247Z,30.42
2022-08-10T10:47:15.902Z,29.93
2022-08-10T10:49:51.137Z,30.21
2022-08-10T10:52:29.130Z,29.97
2022-08-10T10:55:04.827Z,29.79
2022-08-10T10:57:58.395Z,29.85
2022-08-10T11:00:31.147Z,29.35
2022-08-10T11:03:15.228Z,29.37
2022-08-10T11:05:49.322Z,28.90
2022-08-10T11:08:20.295Z,29.58
2022-08-10T11:11:02.647Z,29.40
2022-08-10T11:14:26.345Z,29.51
2022-08-10T11:16:29.509Z,29.61
2022-08-10T11:19:00.833Z,29.70
2022-08-10T11:21:36.737Z,29.54
2022-08-10T11:24:48.879Z,29.50
2022-08-10T11:27:03.911Z,29.64
2022-08-10T11:29:35.062Z,29.57
2022-08-10T11:32:08.460Z,29.46
2022-08-10T11:35:11.487Z,29.52
2022-08-10T11:38:29.737Z,29.40
2022-08-10T11:40:40.632Z,29.37
2022-08-10T11:43:12.339Z,28.86
2022-08-10T11:45:52.077Z,28.64
2022-08-10T11:48:54.129Z,28.78
2022-08-10T11:51:20.839Z,28.77
2022-08-10T11:53:51.660Z,28.53
2022-08-10T11:56:26.098Z,29.10
2022-08-10T11:59:16.637Z,29.11
2022-08-10T12:01:47.207Z,29.27
2022-08-10T12:04:16.321Z,29.83
2022-08-10T12:06:55.651Z,29.97
2022-08-10T12:10:05.510Z,30.00
2022-08-10T12:12:16.787Z,31.24
2022-08-10T12:14:49.889Z,30.42
2022-08-10T12:17:21.629Z,29.62
2022-08-10T12:19:59.921Z,29.39
2022-08-10T12:22:35.749Z,30.54
2022-08-10T12:25:05.769Z,30.30
2022-08-10T12:27:38.669Z,30.00
2022-08-10T12:30:09.491Z,29.69
2022-08-10T12:32:42.952Z,29.22
2022-08-10T12:35:21.798Z,29.22
2022-08-10T12:37:58.258Z,28.63
2022-08-10T12:40:36.881Z,28.64
2022-08-10T12:44:04.777Z,29.55
2022-08-10T12:46:06.704Z,29.94
2022-08-10T12:48:38.401Z,29.59
2022-08-10T12:51:11.690Z,29.40
2022-08-10T12:53:47.731Z,29.50
2022-08-10T12:56:24.681Z,29.72
2022-08-10T12:58:58.910Z,29.50
2022-08-10T13:02:07.454Z,29.96
2022-08-10T13:04:28.510Z,29.36
2022-08-10T13:06:57.016Z,30.09
2022-08-10T13:09:26.438Z,29.42
2022-08-10T13:12:35.450Z,29.17
2022-08-10T13:14:49.637Z,30.07
2022-08-10T13:17:24.835Z,29.66
2022-08-10T13:20:14.349Z,29.45
2022-08-10T13:22:43.216Z,29.59
2022-08-10T13:25:12.476Z,29.71
2022-08-10T13:28:01.111Z,29.41
2022-08-10T13:30:37.267Z,29.22
2022-08-10T13:33:10.758Z,29.52
2022-08-10T13:35:39.718Z,29.39
2022-08-10T13:38:10.222Z,29.66
2022-08-10T13:40:40.100Z,30.00
2022-08-10T13:43:09.349Z,29.69
2022-08-10T13:45:43.040Z,29.51
2022-08-10T13:48:18.512Z,29.21
2022-08-10T13:50:47.988Z,29.47
2022-08-10T13:53:18.470Z,29.69
2022-08-10T13:55:54.842Z,29.69
2022-08-10T13:58:26.241Z,30.10
2022-08-10T14:00:55.782Z,30.58
2022-08-10T14:03:27.292Z,30.87
2022-08-10T14:05:57.005Z,31.74
2022-08-10T14:08:26.919Z,31.17
2022-08-10T14:11:09.554Z,30.57
2022-08-10T14:13:42.266Z,30.36
2022-08-10T14:16:12.822Z,30.74
2022-08-10T14:18:45.169Z,30.79
2022-08-10T14:21:14.533Z,30.29
2022-08-10T14:23:48.634Z,30.88
2022-08-10T14:26:23.392Z,30.89
2022-08-10T14:28:54.594Z,31.03
2022-08-10T14:31:27.413Z,31.17
2022-08-10T14:33:59.104Z,30.98
2022-08-10T14:36:32.205Z,31.16
2022-08-10T14:39:02.516Z,31.36
2022-08-10T14:42:01.083Z,31.42
2022-08-10T14:44:22.272Z,31.11
2022-08-10T14:46:55.677Z,31.42
2022-08-10T14:49:27.308Z,31.30
2022-08-10T14:52:01.019Z,31.51
2022-08-10T14:54:30.201Z,31.74
2022-08-10T14:57:11.167Z,31.87
2022-08-10T15:00:22.494Z,32.12
2022-08-10T15:02:38.704Z,31.96
2022-08-10T15:05:12.128Z,32.15
2022-08-10T15:07:41.990Z,31.86
2022-08-10T15:10:11.999Z,31.83
2022-08-10T15:12:41.493Z,31.74
2022-08-10T15:15:17.861Z,32.00
2022-08-10T15:17:48.569Z,31.77
2022-08-10T15:20:20.406Z,31.81
2022-08-10T15:22:51.285Z,31.77
2022-08-10T15:25:24.268Z,31.84
2022-08-10T15:27:57.094Z,31.69
2022-08-10T15:30:39.707Z,32.44
2022-08-10T15:33:21.342Z,32.54
2022-08-10T15:36:20.210Z,32.10
2022-08-10T15:38:50.309Z,32.16
2022-08-10T15:41:58.800Z,32.08
2022-08-10T15:44:24.993Z,31.75
2022-08-10T15:47:02.777Z,32.07
2022-08-10T15:49:33.503Z,32.43
2022-08-10T15:52:04.363Z,32.00
2022-08-10T15:54:34.666Z,32.54
2022-08-10T15:57:05.025Z,32.26
2022-08-10T15:59:35.565Z,32.32
2022-08-10T16:02:15.782Z,32.49
2022-08-10T16:04:50.038Z,32.46
2022-08-10T16:07:20.603Z,32.63
2022-08-10T16:10:23.092Z,32.87
2022-08-10T16:12:43.700Z,32.95
2022-08-10T16:15:29.568Z,32.56
2022-08-10T16:18:02.752Z,32.89
2022-08-10T16:20:32.752Z,32.83
2022-08-10T16:23:02.989Z,32.42
2022-08-10T16:25:48.285Z,32.53
2022-08-10T16:28:23.749Z,32.65
2022-08-10T16:30:54.702Z,33.14
2022-08-10T16:33:28.092Z,32.86
2022-08-10T16:36:17.552Z,33.32
2022-08-10T16:38:47.970Z,33.28
2022-08-10T16:42:04.219Z,33.16
2022-08-10T16:44:06.971Z,32.99
2022-08-10T16:46:35.713Z,33.16
2022-08-10T16:49:06.869Z,33.04
2022-08-10T16:51:36.239Z,33.46
2022-08-10T16:54:05.048Z,33.45
2022-08-10T16:56:47.689Z,33.44
2022-08-10T16:59:24.405Z,33.44
2022-08-10T17:01:54.457Z,33.81
2022-08-10T17:04:25.048Z,33.78
2022-08-10T17:06:56.400Z,33.74
2022-08-10T17:09:27.779Z,33.93
2022-08-10T17:11:58.314Z,34.61
2022-08-10T17:14:28.800Z,34.60
2022-08-10T17:17:00.571Z,34.73
2022-08-10T17:19:33.104Z,34.68
2022-08-10T17:22:03.840Z,34.75
2022-08-10T17:24:34.363Z,34.77
2022-08-10T17:28:04.481Z,34.91
2022-08-10T17:30:04.622Z,35.45
2022-08-10T17:32:44.387Z,35.29
2022-08-10T17:35:22.997Z,35.24
2022-08-10T17:37:56.771Z,35.62
2022-08-10T17:40:26.650Z,35.81
2022-08-10T17:42:55.978Z,36.01
2022-08-10T17:45:47.467Z,36.06
2022-08-10T17:48:15.759Z,36.38
2022-08-10T17:50:49.832Z,36.50
2022-08-10T17:53:20.149Z,36.44
2022-08-10T17:55:50.841Z,36.52
2022-08-10T17:58:21.241Z,36.64
2022-08-10T18:00:51.302Z,36.67
2022-08-10T18:03:25.105Z,36.88
2022-08-10T18:05:56.710Z,37.09
2022-08-10T18:08:26.720Z,36.83
2022-08-10T18:10:58.081Z,36.65
2022-08-10T18:13:28.891Z,36.65
2022-08-10T18:16:24.550Z,37.05
2022-08-10T18:18:57.553Z,36.98
2022-08-10T18:21:32.408Z,37.37
2022-08-10T18:24:02.188Z,37.39
2022-08-10T18:26:35.718Z,37.47
2022-08-10T18:29:07.649Z,37.58
2022-08-10T18:31:38.292Z,37.68
2022-08-10T18:34:13.000Z,37.84
2022-08-10T18:36:44.640Z,38.03
2022-08-10T18:39:15.990Z,38.64
2022-08-10T18:42:04.918Z,38.70
2022-08-10T18:44:36.739Z,39.16
2022-08-10T18:47:07.881Z,39.20
2022-08-10T18:49:43.108Z,39.57
2022-08-10T18:52:16.479Z,39.65
2022-08-10T18:54:46.623Z,39.81
2022-08-10T18:57:22.479Z,40.01
2022-08-10T19:00:08.757Z,40.27
2022-08-10T19:02:48.959Z,40.49
2022-08-10T19:05:30.483Z,40.29
2022-08-10T19:08:11.167Z,40.56
2022-08-10T19:10:43.978Z,40.55
2022-08-10T19:13:20.131Z,40.94
2022-08-10T19:15:53.679Z,41.08
2022-08-10T19:18:30.172Z,41.26
2022-08-10T19:21:00.978Z,41.29
2022-08-10T19:23:39.681Z,40.84
2022-08-10T19:26:36.500Z,41.15
2022-08-10T19:29:16.357Z,41.39
2022-08-10T19:32:03.144Z,41.49
2022-08-10T19:34:46.372Z,41.27
2022-08-10T19:37:20.571Z,41.27
2022-08-10T19:39:58.311Z,41.24
2022-08-10T19:42:31.751Z,41.37
2022-08-10T19:45:06.240Z,41.18
2022-08-10T19:47:39.992Z,41.52
2022-08-10T19:50:11.022Z,41.39
2022-08-10T19:52:44.251Z,41.57
2022-08-10T19:55:19.313Z,42.07
2022-08-10T19:57:53.586Z,42.13
2022-08-10T20:00:26.954Z,41.97
2022-08-10T20:03:07.987Z,42.37
2022-08-10T20:05:43.519Z,42.72
2022-08-10T20:08:37.003Z,42.49
2022-08-10T20:11:44.346Z,42.20
2022-08-10T20:14:08.126Z,42.32
2022-08-10T20:16:50.403Z,42.66
2022-08-10T20:19:53.616Z,42.51
2022-08-10T20:22:18.152Z,42.60
2022-08-10T20:25:02.840Z,43.04
2022-08-10T20:27:57.855Z,43.62
2022-08-10T20:30:28.815Z,43.88
2022-08-10T20:32:58.484Z,43.76
2022-08-10T20:35:27.721Z,43.61
2022-08-10T20:38:04.951Z,44.33
2022-08-10T20:40:47.162Z,45.72
2022-08-10T20:43:21.825Z,46.64
2022-08-10T20:46:09.423Z,46.68
2022-08-10T20:48:42.693Z,46.72
2022-08-10T20:51:16.162Z,46.70
2022-08-10T20:53:46.595Z,47.02
2022-08-10T20:56:18.643Z,47.21
2022-08-10T20:58:58.145Z,47.77
2022-08-10T21:02:06.544Z,47.91
2022-08-10T21:04:32.414Z,48.85
2022-08-10T21:07:44.117Z,48.91
2022-08-10T21:10:18.256Z,48.93
2022-08-10T21:13:00.034Z,48.77
2022-08-10T21:15:41.684Z,49.40
2022-08-10T21:18:23.006Z,48.95
2022-08-10T21:20:59.591Z,49.03
2022-08-10T21:23:31.048Z,49.21
2022-08-10T21:26:08.042Z,48.86
2022-08-10T21:28:56.777Z,48.81
2022-08-10T21:31:41.877Z,48.22
2022-08-10T21:34:19.334Z,48.31
2022-08-10T21:37:07.925Z,48.72
2022-08-10T21:39:49.161Z,48.73
2022-08-10T21:42:33.486Z,48.84
2022-08-10T21:45:17.765Z,49.67
2022-08-10T21:48:07.379Z,49.63
2022-08-10T21:51:01.956Z,49.65
2022-08-10T21:53:47.654Z,49.79
2022-08-10T21:56:30.495Z,50.66
2022-08-10T21:59:13.026Z,50.55
2022-08-10T22:01:55.960Z,50.38
2022-08-10T22:04:35.210Z,50.28
2022-08-10T22:07:15.902Z,50.32
2022-08-10T22:09:56.978Z,50.08
2022-08-10T22:12:38.181Z,50.15
2022-08-10T22:16:05.377Z,50.46
2022-08-10T22:18:31.503Z,50.13
2022-08-10T22:21:13.377Z,50.73
2022-08-10T22:24:02.295Z,50.45
2022-08-10T22:27:03.206Z,50.39
2022-08-10T22:29:44.020Z,50.99
2022-08-10T22:32:30.381Z,51.47
2022-08-10T22:35:15.129Z,51.44
2022-08-10T22:38:08.168Z,51.96
2022-08-10T22:40:48.287Z,52.21
2022-08-10T22:43:36.510Z,52.53
2022-08-10T22:46:18.047Z,52.62
2022-08-10T22:48:56.228Z,52.34
2022-08-10T22:51:24.929Z,52.37
2022-08-10T22:54:04.207Z,52.81
2022-08-10T22:56:47.700Z,53.49
2022-08-10T22:59:27.839Z,53.86
2022-08-10T23:02:08.599Z,54.64
2022-08-10T23:04:45.000Z,54.96
2022-08-10T23:07:21.869Z,55.41
2022-08-10T23:09:57.166Z,55.78
2022-08-10T23:12:31.032Z,56.25
2022-08-10T23:15:10.835Z,56.71
2022-08-10T23:18:02.112Z,57.18
2022-08-10T23:20:32.178Z,56.93
2022-08-10T23:23:09.039Z,57.30
2022-08-10T23:25:57.372Z,57.48
2022-08-10T23:28:57.352Z,57.71
2022-08-10T23:32:00.613Z,57.50
2022-08-10T23:34:07.978Z,57.89
2022-08-10T23:36:39.190Z,57.88
2022-08-10T23:39:25.825Z,58.15
2022-08-10T23:42:04.857Z,57.96
2022-08-10T23:44:43.132Z,58.07
2022-08-10T23:47:13.342Z,58.20
2022-08-10T23:49:43.293Z,58.74
2022-08-10T23:52:13.321Z,58.91
2022-08-10T23:54:46.070Z,59.08
2022-08-10T23:57:18.529Z,59.05
2022-08-10T23:59:57.860Z,59.08
